createdAt,value
2022-11-08T00:01:34.687Z,7.87
2022-11-08T00:03:37.562Z,7.85
2022-11-08T00:05:57.900Z,7.89
2022-11-08T00:08:21.947Z,7.88
2022-11-08T00:10:42.066Z,7.76
2022-11-08T00:13:02.522Z,7.78
2022-11-08T00:15:06.369Z,7.66
2022-11-08T00:17:10.372Z,7.63
2022-11-08T00:19:12.939Z,7.60
2022-11-08T00:21:15.521Z,7.54
2022-11-08T00:23:18.103Z,7.54
2022-11-08T00:25:20.754Z,7.54
2022-11-08T00:27:25.141Z,7.53
2022-11-08T00:29:27.779Z,7.51
2022-11-08T00:31:30.367Z,7.46
2022-11-08T00:33:34.417Z,7.44
2022-11-08T00:35:37.037Z,7.44
2022-11-08T00:37:39.601Z,7.42
2022-11-08T00:39:42.251Z,7.42
2022-11-08T00:41:44.859Z,7.41
2022-11-08T00:43:47.579Z,7.46
2022-11-08T00:45:50.177Z,7.46
2022-11-08T00:47:52.770Z,7.46
2022-11-08T00:49:56.680Z,7.42
2022-11-08T00:51:59.319Z,7.40
2022-11-08T00:54:02.041Z,7.38
2022-11-08T00:56:06.416Z,7.39
2022-11-08T00:58:08.996Z,7.39
2022-11-08T01:00:15.000Z,7.35
2022-11-08T01:02:17.639Z,7.31
2022-11-08T01:04:20.778Z,7.25
2022-11-08T01:06:26.035Z,7.20
2022-11-08T01:08:28.635Z,7.20
2022-11-08T01:10:31.240Z,7.14
2022-11-08T01:12:33.858Z,7.09
2022-11-08T01:14:36.507Z,7.05
2022-11-08T01:16:39.151Z,7.06
2022-11-08T01:18:42.257Z,7.08
2022-11-08T01:20:46.390Z,7.05
2022-11-08T01:22:50.360Z,7.09
2022-11-08T01:24:52.963Z,7.05
2022-11-08T01:26:55.549Z,7.09
2022-11-08T01:28:58.895Z,7.09
2022-11-08T01:31:04.880Z,7.06
2022-11-08T01:33:08.456Z,7.05
2022-11-08T01:35:11.119Z,7.01
2022-11-08T01:37:13.745Z,7.03
2022-11-08T01:39:20.599Z,7.02
2022-11-08T01:41:25.669Z,7.03
2022-11-08T01:43:46.389Z,7.01
2022-11-08T01:46:30.614Z,6.96
2022-11-08T01:48:33.276Z,6.97
2022-11-08T01:50:35.883Z,6.95
2022-11-08T01:52:43.526Z,6.94
2022-11-08T01:54:54.186Z,6.94
2022-11-08T01:56:59.881Z,6.91
2022-11-08T01:59:06.019Z,6.92
2022-11-08T02:01:09.338Z,6.93
2022-11-08T02:03:15.113Z,6.86
2022-11-08T02:05:26.478Z,6.86
2022-11-08T02:07:31.799Z,6.89
2022-11-08T02:09:37.069Z,6.90
2022-11-08T02:11:41.599Z,6.88
2022-11-08T02:13:44.371Z,6.87
2022-11-08T02:15:47.279Z,6.86
2022-11-08T02:17:50.076Z,6.86
2022-11-08T02:19:52.707Z,6.90
2022-11-08T02:22:00.045Z,6.82
2022-11-08T02:24:09.109Z,6.82
2022-11-08T02:26:12.736Z,6.79
2022-11-08T02:28:16.560Z,6.80
2022-11-08T02:30:19.584Z,6.76
2022-11-08T02:32:22.303Z,6.81
2022-11-08T02:34:28.043Z,6.74
2022-11-08T02:36:32.065Z,6.76
2022-11-08T02:38:38.965Z,6.71
2022-11-08T02:40:49.969Z,6.68
2022-11-08T02:42:52.529Z,6.66
2022-11-08T02:44:55.127Z,6.65
2022-11-08T02:46:58.328Z,6.65
2022-11-08T02:49:00.923Z,6.62
2022-11-08T02:51:03.556Z,6.59
2022-11-08T02:53:06.895Z,6.60
2022-11-08T02:55:09.541Z,6.60
2022-11-08T02:57:13.546Z,6.60
2022-11-08T02:59:16.356Z,6.60
2022-11-08T03:01:18.985Z,6.57
2022-11-08T03:03:21.614Z,6.56
2022-11-08T03:05:25.231Z,6.56
2022-11-08T03:07:27.769Z,6.51
2022-11-08T03:09:30.335Z,6.51
2022-11-08T03:11:33.171Z,6.54
2022-11-08T03:13:37.078Z,6.56
2022-11-08T03:15:39.684Z,6.48
2022-11-08T03:17:42.286Z,6.44
2022-11-08T03:19:44.887Z,6.48
2022-11-08T03:21:47.455Z,6.42
2022-11-08T03:23:50.066Z,6.37
2022-11-08T03:25:52.639Z,6.32
2022-11-08T03:27:55.201Z,6.30
2022-11-08T03:29:59.126Z,6.27
2022-11-08T03:32:01.716Z,6.22
2022-11-08T03:34:04.341Z,6.25
2022-11-08T03:36:07.229Z,6.23
2022-11-08T03:38:09.848Z,6.21
2022-11-08T03:40:13.266Z,6.23
2022-11-08T03:42:15.850Z,6.22
2022-11-08T03:44:18.450Z,6.20
2022-11-08T03:46:22.482Z,6.16
2022-11-08T03:48:25.083Z,6.17
2022-11-08T03:50:27.772Z,6.18
2022-11-08T03:52:30.361Z,6.13
2022-11-08T03:54:32.949Z,6.07
2022-11-08T03:56:35.560Z,6.00
2022-11-08T03:58:38.284Z,5.97
2022-11-08T04:00:40.855Z,6.06
2022-11-08T04:02:45.439Z,6.02
2022-11-08T04:04:48.044Z,6.05
2022-11-08T04:06:50.581Z,6.10
2022-11-08T04:08:53.211Z,6.06
2022-11-08T04:10:56.419Z,6.04
2022-11-08T04:13:17.652Z,6.01
2022-11-08T04:15:22.497Z,6.09
2022-11-08T04:17:45.058Z,6.21
2022-11-08T04:20:06.653Z,6.28
2022-11-08T04:22:10.945Z,6.20
2022-11-08T04:24:13.921Z,6.20
2022-11-08T04:26:16.760Z,6.28
2022-11-08T04:28:19.593Z,6.30
2022-11-08T04:30:22.452Z,6.22
2022-11-08T04:32:25.535Z,6.21
2022-11-08T04:34:28.114Z,6.21
2022-11-08T04:36:32.051Z,6.23
2022-11-08T04:38:35.137Z,6.21
2022-11-08T04:40:37.792Z,6.27
2022-11-08T04:42:44.782Z,6.23
2022-11-08T04:44:47.414Z,6.21
2022-11-08T04:46:50.039Z,6.18
2022-11-08T04:48:54.315Z,6.21
2022-11-08T04:50:56.955Z,6.17
2022-11-08T04:53:01.276Z,6.15
2022-11-08T04:55:03.908Z,6.17
2022-11-08T04:57:06.543Z,6.17
2022-11-08T04:59:12.385Z,6.16
2022-11-08T05:01:16.919Z,6.17
2022-11-08T05:03:19.517Z,6.18
2022-11-08T05:05:22.910Z,6.22
2022-11-08T05:07:25.666Z,6.24
2022-11-08T05:09:29.708Z,6.28
2022-11-08T05:11:32.450Z,6.20
2022-11-08T05:13:35.960Z,6.19
2022-11-08T05:15:38.582Z,6.14
2022-11-08T05:17:41.205Z,6.17
2022-11-08T05:20:01.406Z,6.15
2022-11-08T05:22:21.383Z,6.19
2022-11-08T05:24:23.989Z,6.20
2022-11-08T05:26:28.822Z,6.21
2022-11-08T05:28:31.454Z,6.21
2022-11-08T05:30:34.033Z,6.21
2022-11-08T05:32:36.701Z,6.17
2022-11-08T05:34:39.364Z,6.22
2022-11-08T05:36:42.085Z,6.25
2022-11-08T05:38:44.904Z,6.22
2022-11-08T05:40:47.799Z,6.18
2022-11-08T05:42:54.117Z,6.15
2022-11-08T05:44:56.728Z,6.20
2022-11-08T05:46:59.332Z,6.21
2022-11-08T05:49:02.023Z,6.21
2022-11-08T05:51:05.103Z,6.19
2022-11-08T05:53:07.692Z,6.17
2022-11-08T05:55:10.723Z,6.14
2022-11-08T05:57:13.292Z,6.19
2022-11-08T05:59:17.280Z,6.16
2022-11-08T06:01:21.382Z,6.09
2022-11-08T06:03:24.227Z,6.10
2022-11-08T06:05:37.608Z,6.14
2022-11-08T06:07:40.245Z,6.07
2022-11-08T06:09:42.893Z,6.04
2022-11-08T06:11:45.508Z,6.07
2022-11-08T06:13:48.620Z,6.08
2022-11-08T06:15:52.555Z,6.01
2022-11-08T06:17:55.160Z,6.00
2022-11-08T06:19:57.786Z,5.95
2022-11-08T06:22:00.385Z,5.94
2022-11-08T06:24:02.965Z,5.91
2022-11-08T06:26:06.266Z,5.89
2022-11-08T06:28:08.901Z,5.89
2022-11-08T06:30:12.310Z,5.89
2022-11-08T06:32:16.311Z,5.93
2022-11-08T06:34:19.076Z,5.93
2022-11-08T06:36:21.826Z,5.96
2022-11-08T06:38:24.485Z,5.95
2022-11-08T06:40:27.560Z,5.96
2022-11-08T06:42:30.133Z,5.96
2022-11-08T06:44:32.708Z,5.93
2022-11-08T06:46:35.278Z,5.89
2022-11-08T06:48:39.230Z,5.89
2022-11-08T06:50:42.858Z,5.88
2022-11-08T06:52:45.512Z,5.88
2022-11-08T06:54:48.154Z,5.90
2022-11-08T06:56:50.718Z,5.90
2022-11-08T06:58:53.303Z,5.92
2022-11-08T07:00:55.952Z,5.91
2022-11-08T07:03:00.168Z,5.96
2022-11-08T07:05:04.408Z,5.94
2022-11-08T07:07:07.026Z,5.95
2022-11-08T07:09:10.028Z,5.96
2022-11-08T07:11:12.591Z,5.97
2022-11-08T07:13:15.939Z,6.09
2022-11-08T07:15:23.427Z,6.15
2022-11-08T07:17:26.102Z,6.15
2022-11-08T07:19:28.704Z,6.21
2022-11-08T07:21:32.853Z,6.23
2022-11-08T07:23:35.579Z,6.23
2022-11-08T07:25:38.536Z,6.27
2022-11-08T07:27:41.117Z,6.34
2022-11-08T07:29:43.724Z,6.36
2022-11-08T07:31:47.185Z,6.42
2022-11-08T07:33:49.784Z,6.38
2022-11-08T07:35:52.364Z,6.45
2022-11-08T07:37:56.742Z,6.46
2022-11-08T07:39:59.402Z,6.49
2022-11-08T07:42:01.992Z,6.50
2022-11-08T07:44:05.014Z,6.52
2022-11-08T07:46:07.835Z,6.55
2022-11-08T07:48:13.209Z,6.58
2022-11-08T07:50:18.004Z,6.63
2022-11-08T07:52:20.755Z,6.65
2022-11-08T07:54:24.710Z,6.68
2022-11-08T07:56:27.575Z,6.71
2022-11-08T07:58:30.153Z,6.76
2022-11-08T08:00:36.290Z,6.80
2022-11-08T08:02:39.018Z,6.84
2022-11-08T08:04:41.996Z,6.84
2022-11-08T08:06:44.620Z,6.86
2022-11-08T08:08:47.256Z,6.94
2022-11-08T08:10:51.402Z,6.92
2022-11-08T08:12:54.135Z,6.95
2022-11-08T08:14:56.781Z,7.01
2022-11-08T08:16:59.359Z,6.98
2022-11-08T08:19:01.934Z,6.97
2022-11-08T08:21:04.831Z,6.96
2022-11-08T08:23:07.809Z,7.00
2022-11-08T08:25:11.118Z,7.00
2022-11-08T08:27:15.491Z,7.18
2022-11-08T08:29:18.098Z,7.21
2022-11-08T08:31:20.763Z,7.20
2022-11-08T08:33:30.402Z,7.18
2022-11-08T08:35:36.436Z,7.22
2022-11-08T08:37:39.050Z,7.27
2022-11-08T08:39:41.632Z,7.29
2022-11-08T08:41:44.276Z,7.41
2022-11-08T08:43:48.207Z,7.55
2022-11-08T08:45:51.115Z,7.58
2022-11-08T08:47:54.690Z,7.66
2022-11-08T08:49:57.234Z,7.64
2022-11-08T08:51:59.875Z,7.63
2022-11-08T08:54:02.528Z,7.67
2022-11-08T08:56:05.818Z,7.70
2022-11-08T08:58:08.566Z,7.78
2022-11-08T09:02:39.887Z,7.85
2022-11-08T09:04:45.021Z,7.91
2022-11-08T09:06:47.720Z,7.97
2022-11-08T09:08:50.374Z,8.02
2022-11-08T09:10:56.430Z,8.06
2022-11-08T09:12:59.057Z,8.10
2022-11-08T09:15:02.062Z,8.13
2022-11-08T09:17:05.975Z,8.14
2022-11-08T09:19:08.585Z,8.21
2022-11-08T09:21:11.189Z,8.26
2022-11-08T09:23:15.060Z,8.31
2022-11-08T09:25:17.931Z,8.35
2022-11-08T09:27:20.558Z,8.37
2022-11-08T09:29:23.150Z,8.38
2022-11-08T09:31:25.767Z,8.44
2022-11-08T09:33:30.154Z,8.43
2022-11-08T09:35:33.494Z,8.46
2022-11-08T09:37:36.131Z,8.49
2022-11-08T09:39:38.780Z,8.52
2022-11-08T09:42:00.846Z,8.55
2022-11-08T09:44:10.538Z,8.57
2022-11-08T09:46:25.734Z,8.65
2022-11-08T09:48:33.261Z,8.70
2022-11-08T09:50:40.455Z,8.78
2022-11-08T09:52:46.690Z,8.82
2022-11-08T09:54:51.567Z,8.88
2022-11-08T09:56:55.651Z,8.95
2022-11-08T09:59:02.200Z,9.01
2022-11-08T10:01:07.693Z,9.10
2022-11-08T10:03:15.614Z,9.17
2022-11-08T10:05:21.311Z,9.19
2022-11-08T10:07:33.471Z,9.13
2022-11-08T10:09:51.795Z,9.13
2022-11-08T10:12:10.376Z,9.33
2022-11-08T10:14:26.512Z,9.25
2022-11-08T10:16:37.850Z,9.31
2022-11-08T10:19:05.925Z,9.38
2022-11-08T10:21:23.967Z,9.44
2022-11-08T10:23:41.819Z,9.44
2022-11-08T10:25:47.686Z,9.43
2022-11-08T10:27:53.893Z,9.42
2022-11-08T10:30:02.626Z,9.45
2022-11-08T10:32:15.404Z,9.46
2022-11-08T10:34:21.354Z,9.49
2022-11-08T10:36:29.541Z,9.56
2022-11-08T10:38:36.987Z,9.57
2022-11-08T10:40:46.580Z,9.58
2022-11-08T10:42:57.500Z,9.63
2022-11-08T10:45:00.376Z,9.65
2022-11-08T10:47:05.247Z,9.68
2022-11-08T10:49:20.644Z,9.72
2022-11-08T10:51:23.259Z,9.74
2022-11-08T10:53:30.456Z,9.77
2022-11-08T10:55:38.335Z,9.77
2022-11-08T10:57:45.199Z,9.79
2022-11-08T10:59:47.969Z,9.78
2022-11-08T11:01:51.734Z,9.83
2022-11-08T11:03:54.919Z,9.86
2022-11-08T11:06:00.785Z,9.89
2022-11-08T11:08:17.382Z,9.92
2022-11-08T11:10:26.999Z,10.00
2022-11-08T11:12:29.583Z,10.02
2022-11-08T11:14:32.229Z,10.06
2022-11-08T11:16:36.599Z,10.10
2022-11-08T11:18:46.563Z,10.14
2022-11-08T11:20:59.921Z,10.17
2022-11-08T11:23:02.652Z,10.20
2022-11-08T11:25:15.514Z,10.22
2022-11-08T11:27:24.886Z,10.23
2022-11-08T11:29:29.824Z,10.24
2022-11-08T11:31:34.090Z,10.23
2022-11-08T11:33:45.006Z,10.21
2022-11-08T11:35:50.878Z,10.21
2022-11-08T11:37:56.624Z,10.20
2022-11-08T11:40:05.727Z,10.19
2022-11-08T11:42:43.988Z,10.18
2022-11-08T11:44:59.408Z,10.19
2022-11-08T11:47:06.311Z,10.20
2022-11-08T11:49:18.703Z,10.21
2022-11-08T11:51:21.828Z,10.23
2022-11-08T11:53:27.828Z,10.25
2022-11-08T11:55:50.806Z,10.27
2022-11-08T11:58:05.802Z,10.28
2022-11-08T12:00:12.853Z,10.33
2022-11-08T12:02:49.963Z,10.37
2022-11-08T12:05:13.143Z,10.41
2022-11-08T12:07:22.900Z,10.50
2022-11-08T12:09:38.595Z,10.54
2022-11-08T12:11:52.746Z,10.59
2022-11-08T12:14:13.210Z,10.62
2022-11-08T12:16:22.846Z,10.66
2022-11-08T12:18:51.509Z,10.69
2022-11-08T12:21:04.637Z,10.74
2022-11-08T12:23:37.303Z,10.75
2022-11-08T12:25:51.731Z,10.78
2022-11-08T12:28:01.254Z,10.81
2022-11-08T12:30:09.982Z,10.81
2022-11-08T12:32:33.797Z,10.77
2022-11-08T12:34:49.516Z,10.76
2022-11-08T12:37:03.279Z,10.73
2022-11-08T12:39:20.605Z,10.78
2022-11-08T12:41:37.771Z,10.83
2022-11-08T12:43:52.842Z,10.92
2022-11-08T12:46:03.592Z,11.00
2022-11-08T12:48:16.747Z,11.12
2022-11-08T12:50:28.612Z,11.15
2022-11-08T12:52:48.296Z,11.13
2022-11-08T12:54:54.655Z,11.09
2022-11-08T12:57:02.379Z,11.08
2022-11-08T12:59:10.817Z,11.06
2022-11-08T13:01:15.715Z,11.03
2022-11-08T13:03:47.098Z,11.04
2022-11-08T13:05:59.879Z,11.05
2022-11-08T13:08:09.623Z,11.06
2022-11-08T13:10:30.209Z,11.17
2022-11-08T13:12:45.355Z,11.24
2022-11-08T13:14:48.266Z,11.32
2022-11-08T13:17:22.888Z,11.36
2022-11-08T13:19:30.635Z,11.39
2022-11-08T13:21:39.575Z,11.43
2022-11-08T13:23:42.220Z,11.49
2022-11-08T13:25:45.266Z,11.58
2022-11-08T13:27:48.507Z,11.63
2022-11-08T13:29:51.840Z,11.65
2022-11-08T13:31:59.973Z,11.69
2022-11-08T13:34:21.867Z,11.69
2022-11-08T13:36:37.183Z,11.68
2022-11-08T13:38:49.305Z,11.67
2022-11-08T13:41:15.927Z,11.71
2022-11-08T13:43:25.142Z,11.72
2022-11-08T13:45:32.384Z,11.71
2022-11-08T13:47:54.228Z,11.65
2022-11-08T13:50:41.118Z,11.59
2022-11-08T13:52:47.679Z,11.55
2022-11-08T13:54:52.812Z,11.52
2022-11-08T13:56:56.479Z,11.47
2022-11-08T13:58:59.190Z,11.43
2022-11-08T14:01:04.710Z,11.41
2022-11-08T14:03:40.613Z,11.37
2022-11-08T14:05:49.415Z,11.35
2022-11-08T14:08:17.196Z,11.33
2022-11-08T14:10:26.383Z,11.31
2022-11-08T14:12:35.232Z,11.31
2022-11-08T14:14:43.244Z,11.31
2022-11-08T14:16:54.682Z,11.34
2022-11-08T14:19:17.466Z,11.38
2022-11-08T14:21:21.091Z,11.46
2022-11-08T14:23:28.681Z,11.55
2022-11-08T14:25:35.248Z,11.65
2022-11-08T14:27:41.317Z,11.76
2022-11-08T14:29:43.963Z,11.85
2022-11-08T14:31:47.396Z,11.95
2022-11-08T14:33:50.650Z,12.05
2022-11-08T14:35:55.983Z,12.13
2022-11-08T14:37:58.816Z,12.20
2022-11-08T14:40:02.925Z,12.23
2022-11-08T14:42:14.107Z,12.22
2022-11-08T14:44:18.802Z,12.20
2022-11-08T14:46:29.410Z,12.14
2022-11-08T14:48:32.184Z,12.09
2022-11-08T14:50:36.044Z,12.06
2022-11-08T14:52:38.769Z,12.01
2022-11-08T14:54:43.713Z,11.97
2022-11-08T14:56:50.240Z,11.94
2022-11-08T14:58:54.259Z,11.91
2022-11-08T15:00:57.496Z,11.87
2022-11-08T15:03:03.678Z,11.85
2022-11-08T15:05:33.159Z,11.87
2022-11-08T15:07:35.837Z,11.90
2022-11-08T15:09:39.218Z,11.89
2022-11-08T15:11:43.747Z,11.89
2022-11-08T15:13:53.182Z,11.86
2022-11-08T15:16:01.288Z,11.87
2022-11-08T15:18:12.663Z,11.88
2022-11-08T15:20:21.741Z,11.90
2022-11-08T15:22:26.974Z,11.89
2022-11-08T15:24:36.513Z,11.89
2022-11-08T15:26:40.483Z,11.95
2022-11-08T15:28:43.035Z,11.96
2022-11-08T15:30:51.647Z,12.06
2022-11-08T15:32:54.348Z,12.14
2022-11-08T15:34:58.571Z,12.17
2022-11-08T15:37:01.324Z,12.12
2022-11-08T15:39:07.049Z,12.20
2022-11-08T15:41:31.463Z,12.25
2022-11-08T15:43:41.113Z,12.29
2022-11-08T15:45:55.017Z,12.25
2022-11-08T15:48:10.932Z,12.25
2022-11-08T15:50:16.565Z,12.20
2022-11-08T15:52:21.484Z,12.13
2022-11-08T15:54:25.890Z,12.09
2022-11-08T15:56:28.521Z,12.06
2022-11-08T15:58:32.563Z,12.00
2022-11-08T16:00:36.347Z,11.95
2022-11-08T16:02:40.332Z,11.91
2022-11-08T16:04:43.018Z,11.86
2022-11-08T16:06:45.847Z,11.84
2022-11-08T16:08:48.486Z,11.82
2022-11-08T16:10:53.739Z,11.91
2022-11-08T16:12:58.752Z,11.85
2022-11-08T16:15:01.403Z,11.83
2022-11-08T16:17:04.299Z,11.85
2022-11-08T16:19:18.031Z,11.89
2022-11-08T16:21:20.636Z,11.91
2022-11-08T16:23:23.224Z,11.90
2022-11-08T16:25:27.898Z,11.91
2022-11-08T16:27:30.579Z,12.01
2022-11-08T16:29:34.887Z,11.99
2022-11-08T16:31:37.462Z,12.19
2022-11-08T16:33:40.286Z,12.16
2022-11-08T16:35:44.288Z,12.18
2022-11-08T16:37:47.477Z,12.27
2022-11-08T16:39:50.048Z,12.33
2022-11-08T16:41:52.767Z,12.40
2022-11-08T16:43:56.432Z,12.29
2022-11-08T16:46:05.515Z,12.39
2022-11-08T16:48:17.348Z,12.36
2022-11-08T16:50:22.146Z,12.29
2022-11-08T16:52:26.104Z,12.25
2022-11-08T16:54:29.248Z,12.20
2022-11-08T16:56:31.950Z,12.19
2022-11-08T16:58:34.590Z,12.18
2022-11-08T17:00:38.333Z,12.16
2022-11-08T17:02:44.425Z,12.17
2022-11-08T17:04:47.023Z,12.15
2022-11-08T17:06:49.684Z,12.12
2022-11-08T17:08:53.619Z,12.06
2022-11-08T17:10:56.542Z,12.02
2022-11-08T17:12:59.182Z,11.99
2022-11-08T17:15:01.913Z,12.07
2022-11-08T17:17:04.551Z,12.01
2022-11-08T17:19:07.197Z,11.96
2022-11-08T17:21:38.221Z,11.93
2022-11-08T17:23:33.800Z,11.99
2022-11-08T17:25:39.814Z,11.89
2022-11-08T17:27:43.288Z,11.90
2022-11-08T17:29:45.892Z,11.96
2022-11-08T17:31:48.822Z,11.99
2022-11-08T17:33:51.557Z,11.94
2022-11-08T17:35:54.135Z,11.91
2022-11-08T17:37:56.700Z,11.94
2022-11-08T17:39:59.699Z,11.94
2022-11-08T17:42:03.734Z,11.90
2022-11-08T17:44:06.514Z,11.89
2022-11-08T17:46:10.763Z,11.86
2022-11-08T17:48:13.354Z,11.90
2022-11-08T17:50:15.966Z,11.86
2022-11-08T17:52:19.608Z,11.83
2022-11-08T17:54:22.203Z,11.80
2022-11-08T17:56:24.858Z,11.79
2022-11-08T17:58:29.199Z,11.79
2022-11-08T18:00:34.782Z,11.76
2022-11-08T18:02:37.474Z,11.73
2022-11-08T18:04:40.464Z,11.71
2022-11-08T18:06:43.296Z,11.72
2022-11-08T18:08:45.971Z,11.70
2022-11-08T18:10:48.855Z,11.69
2022-11-08T18:12:51.442Z,11.67
2022-11-08T18:14:55.412Z,11.66
2022-11-08T18:16:58.181Z,11.63
2022-11-08T18:19:00.825Z,11.61
2022-11-08T18:21:03.389Z,11.58
2022-11-08T18:23:06.194Z,11.55
2022-11-08T18:25:09.431Z,11.53
2022-11-08T18:27:12.065Z,11.51
2022-11-08T18:29:14.759Z,11.50
2022-11-08T18:31:20.426Z,11.49
2022-11-08T18:33:23.101Z,11.47
2022-11-08T18:35:27.884Z,11.46
2022-11-08T18:37:30.537Z,11.45
2022-11-08T18:39:33.103Z,11.47
2022-11-08T18:41:35.718Z,11.45
2022-11-08T18:43:38.768Z,11.45
2022-11-08T18:45:41.373Z,11.45
2022-11-08T18:47:45.363Z,11.46
2022-11-08T18:49:47.951Z,11.49
2022-11-08T18:51:52.655Z,11.55
2022-11-08T18:53:55.571Z,11.51
2022-11-08T18:55:58.486Z,11.53
2022-11-08T18:58:01.099Z,11.50
2022-11-08T19:00:05.156Z,11.54
2022-11-08T19:02:07.781Z,11.61
2022-11-08T19:04:11.733Z,11.64
2022-11-08T19:06:14.424Z,11.61
2022-11-08T19:08:18.531Z,11.59
2022-11-08T19:10:21.298Z,11.58
2022-11-08T19:12:24.171Z,11.52
2022-11-08T19:14:27.000Z,11.51
2022-11-08T19:16:29.879Z,11.45
2022-11-08T19:18:33.701Z,11.38
2022-11-08T19:20:37.656Z,11.36
2022-11-08T19:22:40.251Z,11.33
2022-11-08T19:24:45.491Z,11.32
2022-11-08T19:26:48.156Z,11.36
2022-11-08T19:28:55.261Z,11.23
2022-11-08T19:30:57.854Z,11.18
2022-11-08T19:33:00.944Z,11.12
2022-11-08T19:35:06.542Z,11.12
2022-11-08T19:37:10.511Z,11.10
2022-11-08T19:39:13.842Z,11.05
2022-11-08T19:41:18.432Z,11.05
2022-11-08T19:43:21.439Z,11.04
2022-11-08T19:45:24.196Z,11.04
2022-11-08T19:47:26.799Z,11.04
2022-11-08T19:49:30.671Z,11.03
2022-11-08T19:51:34.984Z,11.01
2022-11-08T19:53:38.940Z,11.01
2022-11-08T19:55:41.532Z,11.01
2022-11-08T19:57:44.182Z,10.99
2022-11-08T19:59:46.787Z,10.99
2022-11-08T20:01:49.492Z,11.02
2022-11-08T20:03:52.418Z,11.06
2022-11-08T20:05:55.324Z,11.08
2022-11-08T20:07:57.959Z,11.11
2022-11-08T20:10:02.007Z,11.14
2022-11-08T20:12:05.735Z,11.15
2022-11-08T20:14:09.267Z,11.15
2022-11-08T20:16:13.668Z,11.15
2022-11-08T20:18:16.760Z,11.19
2022-11-08T20:20:20.133Z,11.22
2022-11-08T20:22:22.701Z,11.21
2022-11-08T20:24:25.376Z,11.21
2022-11-08T20:26:29.369Z,11.24
2022-11-08T20:28:32.678Z,11.27
2022-11-08T20:30:35.379Z,11.35
2022-11-08T20:32:38.011Z,11.43
2022-11-08T20:34:41.306Z,11.37
2022-11-08T20:36:44.846Z,11.33
2022-11-08T20:38:47.472Z,11.38
2022-11-08T20:40:50.040Z,11.37
2022-11-08T20:42:56.313Z,11.33
2022-11-08T20:44:58.889Z,11.31
2022-11-08T20:47:06.251Z,11.32
2022-11-08T20:49:09.789Z,11.28
2022-11-08T20:51:13.721Z,11.24
2022-11-08T20:53:16.314Z,11.23
2022-11-08T20:55:18.923Z,11.19
2022-11-08T20:57:21.701Z,11.16
2022-11-08T20:59:25.690Z,11.13
2022-11-08T21:01:30.570Z,11.10
2022-11-08T21:03:33.624Z,11.07
2022-11-08T21:05:36.219Z,11.04
2022-11-08T21:10:27.552Z,11.00
2022-11-08T21:12:23.970Z,10.98
2022-11-08T21:14:28.125Z,10.95
2022-11-08T21:16:42.421Z,10.94
2022-11-08T21:18:49.942Z,10.96
2022-11-08T21:21:02.415Z,10.93
2022-11-08T21:23:05.113Z,10.92
2022-11-08T21:25:08.213Z,10.90
2022-11-08T21:27:11.740Z,10.89
2022-11-08T21:29:14.462Z,10.87
2022-11-08T21:31:18.587Z,10.85
2022-11-08T21:33:21.378Z,10.83
2022-11-08T21:35:24.205Z,10.80
2022-11-08T21:37:26.857Z,10.79
2022-11-08T21:39:29.477Z,10.79
2022-11-08T21:41:33.801Z,10.78
2022-11-08T21:43:42.919Z,10.77
2022-11-08T21:45:46.068Z,10.76
2022-11-08T21:47:51.762Z,10.80
2022-11-08T21:49:54.657Z,10.76
2022-11-08T21:51:57.326Z,10.72
2022-11-08T21:54:00.416Z,10.68
2022-11-08T21:56:03.198Z,10.66
2022-11-08T21:58:05.802Z,10.64
2022-11-08T22:00:11.236Z,10.65
2022-11-08T22:02:16.912Z,10.64
2022-11-08T22:04:20.822Z,10.63
2022-11-08T22:06:23.954Z,10.60
2022-11-08T22:08:26.563Z,10.59
2022-11-08T22:10:29.179Z,10.58
2022-11-08T22:12:32.128Z,10.56
2022-11-08T22:14:34.768Z,10.55
2022-11-08T22:16:37.470Z,10.53
2022-11-08T22:19:03.743Z,10.52
2022-11-08T22:21:21.553Z,10.49
2022-11-08T22:23:24.165Z,10.47
2022-11-08T22:25:26.758Z,10.45
2022-11-08T22:27:29.358Z,10.40
2022-11-08T22:29:32.099Z,10.40
2022-11-08T22:31:34.759Z,10.40
2022-11-08T22:33:37.311Z,10.38
2022-11-08T22:35:39.852Z,10.38
2022-11-08T22:37:43.737Z,10.36
2022-11-08T22:39:46.274Z,10.41
2022-11-08T22:41:50.590Z,10.34
2022-11-08T22:43:53.689Z,10.29
2022-11-08T22:45:56.315Z,10.27
2022-11-08T22:47:58.884Z,10.29
2022-11-08T22:50:01.588Z,10.28
2022-11-08T22:52:04.192Z,10.25
2022-11-08T22:54:08.720Z,10.27
2022-11-08T22:56:12.151Z,10.25
2022-11-08T22:58:14.841Z,10.25
2022-11-08T23:00:18.021Z,10.21
2022-11-08T23:02:20.590Z,10.22
2022-11-08T23:04:23.186Z,10.23
2022-11-08T23:06:25.997Z,10.23
2022-11-08T23:08:29.136Z,10.27
2022-11-08T23:10:53.064Z,10.28
2022-11-08T23:13:13.214Z,10.27
2022-11-08T23:15:33.414Z,10.33
2022-11-08T23:17:35.957Z,10.29
2022-11-08T23:19:55.957Z,10.28
2022-11-08T23:22:30.577Z,10.22
2022-11-08T23:24:33.730Z,10.25
2022-11-08T23:26:55.294Z,10.25
2022-11-08T23:29:15.531Z,10.25
2022-11-08T23:31:32.033Z,10.24
2022-11-08T23:33:34.570Z,10.23
2022-11-08T23:35:37.159Z,10.23
2022-11-08T23:37:43.293Z,10.26
2022-11-08T23:39:59.895Z,10.22
2022-11-08T23:42:26.590Z,10.20
2022-11-08T23:44:29.282Z,10.18
2022-11-08T23:46:31.888Z,10.19
2022-11-08T23:48:34.639Z,10.19
2022-11-08T23:50:37.254Z,10.17
2022-11-08T23:52:39.908Z,10.17
2022-11-08T23:54:42.533Z,10.19
2022-11-08T23:56:45.660Z,10.17
2022-11-08T23:58:49.583Z,10.19
